Avon Lake, Ohio
Current Conditions -  °F | °C
As of 1:51 PM on Friday 28 Nov 2014 (Local Time) from KCLE Reporting Station
Broken Clouds Broken Clouds  
Wind Chill: 16°   Ceiling: 12000
Heat Index: 25°   Visibility: 10mi
Dew Point: 14°   Wind: 9mph
Humidity: 63%   Direction: 220°SW
Pressure: 30.29"   Gusts: NA
Location:  41.51°N, 82.02°W
Report Text: KCLE 281851Z 22008KT 10SM SCT030 BKN120 BKN250 M04/M10 A3029 RMK AO2 SLP266 T10391100 $
Loading
Personal Weather Stations






























Interactive Weather Map New forecast layout! Learn more

10-Day Weather Forecast

Advertisements
Track Severe Weather on mobile